Portada
METAR-TAF:

METAR-TAF

Aeropuertos :

Aeropuerto Internacional de Volgogrado

Volgogrado, Rusia

latitud: 48-47N, longitud: 044-22E, altitud: 145 m

Observación

El informe se hizo hace 43 minutos, a las 02:00 UTC
Viento 10 kt del este-noreste
Temperatura 13°C
Humedad 88%
Presión 1021 hPa
Visibilidad 10 km o más
sin nubes por debajo de 1500 m y sin presencia de cumulonimbus.

METAR: URWW 280200Z 07005MPS CAVOK 13/11 Q1021 R06/010070 TEMPO BKN004

Hora: 06:43 (02:43 UTC)

Pronóstico

El informe se hizo hace 45 minutos, a las 01:58 UTC
Pronóstico válido del 28 a las 03 UTC al 28 a las 12 UTC
Viento 14 kt del este-noreste con ráfagas de 23 kt
Visibilidad 10 km o más
Nubes dispersas a una altura de 1600 ft
Temporalmente
del 28 a las 06 UTC al 28 a las 12 UTC
Viento 19 kt del este con ráfagas de 29 kt

TAF: URWW 280158Z 2803/2812 07007G12MPS 9999 SCT016 TEMPO 2806/2812 10010G15MPS

Observaciones y pronósticos meteorológicos de más de 4000 aeropuertos (mensajes METAR y TAF).

Los puntos amarillos y rojos representan las estaciones disponibles.

Ponga el ratón en el punto deseado para ver el nombre de la estación.

Haga clic para ver las observaciones y los pronósticos meteorológicos.

Para cambiar el mapa : haga clic en los botones verdes con una cruz de color negro para hacer un zoom, en el botón verde con un guión para alejar o en las flechas verdes para mapas adyacentes.


METAR-TAF: